sensor_id;sensor_type;location;lat;lon;timestamp;P1;durP1;ratioP1;P2;durP2;ratioP2
64597;SDS011;51004;54.692;9.332;2023-07-02T00:02:19;10.65;;;3.33;;
64597;SDS011;51004;54.692;9.332;2023-07-02T00:04:46;14.48;;;3.42;;
64597;SDS011;51004;54.692;9.332;2023-07-02T00:07:12;12.93;;;3.83;;
64597;SDS011;51004;54.692;9.332;2023-07-02T00:09:39;9.55;;;2.70;;
64597;SDS011;51004;54.692;9.332;2023-07-02T00:12:05;7.45;;;2.67;;
64597;SDS011;51004;54.692;9.332;2023-07-02T00:14:31;4.75;;;2.67;;
64597;SDS011;51004;54.692;9.332;2023-07-02T00:16:57;6.13;;;2.25;;
64597;SDS011;51004;54.692;9.332;2023-07-02T00:19:23;8.75;;;2.42;;
64597;SDS011;51004;54.692;9.332;2023-07-02T00:21:49;6.78;;;3.00;;
64597;SDS011;51004;54.692;9.332;2023-07-02T00:24:15;10.48;;;2.90;;
64597;SDS011;51004;54.692;9.332;2023-07-02T00:26:42;7.53;;;2.92;;
64597;SDS011;51004;54.692;9.332;2023-07-02T00:29:08;9.48;;;2.72;;
64597;SDS011;51004;54.692;9.332;2023-07-02T00:31:34;11.57;;;3.80;;
64597;SDS011;51004;54.692;9.332;2023-07-02T00:34:01;8.88;;;3.25;;
64597;SDS011;51004;54.692;9.332;2023-07-02T00:36:27;12.48;;;3.17;;
64597;SDS011;51004;54.692;9.332;2023-07-02T00:38:53;10.77;;;3.60;;
64597;SDS011;51004;54.692;9.332;2023-07-02T00:41:19;14.90;;;3.33;;
64597;SDS011;51004;54.692;9.332;2023-07-02T00:43:45;11.63;;;3.40;;
64597;SDS011;51004;54.692;9.332;2023-07-02T00:46:18;13.52;;;4.00;;
64597;SDS011;51004;54.692;9.332;2023-07-02T00:48:50;11.70;;;3.33;;
64597;SDS011;51004;54.692;9.332;2023-07-02T00:51:18;15.20;;;4.05;;
64597;SDS011;51004;54.692;9.332;2023-07-02T00:53:44;16.13;;;4.50;;
64597;SDS011;51004;54.692;9.332;2023-07-02T00:56:11;16.15;;;4.82;;
64597;SDS011;51004;54.692;9.332;2023-07-02T00:58:41;17.65;;;4.45;;
64597;SDS011;51004;54.692;9.332;2023-07-02T01:01:13;19.33;;;5.35;;
64597;SDS011;51004;54.692;9.332;2023-07-02T01:03:49;19.85;;;4.95;;
64597;SDS011;51004;54.692;9.332;2023-07-02T01:06:17;18.63;;;5.05;;
64597;SDS011;51004;54.692;9.332;2023-07-02T01:08:45;17.60;;;4.43;;
64597;SDS011;51004;54.692;9.332;2023-07-02T01:11:11;18.67;;;5.18;;
64597;SDS011;51004;54.692;9.332;2023-07-02T01:13:36;15.35;;;4.25;;
64597;SDS011;51004;54.692;9.332;2023-07-02T01:16:03;17.83;;;5.43;;
64597;SDS011;51004;54.692;9.332;2023-07-02T01:18:30;21.92;;;5.30;;
64597;SDS011;51004;54.692;9.332;2023-07-02T01:20:56;16.00;;;5.10;;
64597;SDS011;51004;54.692;9.332;2023-07-02T01:23:22;19.08;;;4.72;;
64597;SDS011;51004;54.692;9.332;2023-07-02T01:25:51;12.77;;;4.88;;
64597;SDS011;51004;54.692;9.332;2023-07-02T01:28:17;16.40;;;4.60;;
64597;SDS011;51004;54.692;9.332;2023-07-02T01:30:43;16.15;;;4.72;;
64597;SDS011;51004;54.692;9.332;2023-07-02T01:33:08;22.67;;;5.53;;
64597;SDS011;51004;54.692;9.332;2023-07-02T01:35:34;14.73;;;5.38;;
64597;SDS011;51004;54.692;9.332;2023-07-02T01:38:00;20.70;;;6.05;;
64597;SDS011;51004;54.692;9.332;2023-07-02T01:40:26;19.60;;;5.38;;
64597;SDS011;51004;54.692;9.332;2023-07-02T01:42:52;20.55;;;5.55;;
64597;SDS011;51004;54.692;9.332;2023-07-02T01:45:18;19.63;;;5.03;;
64597;SDS011;51004;54.692;9.332;2023-07-02T01:47:44;14.35;;;4.18;;
64597;SDS011;51004;54.692;9.332;2023-07-02T01:50:10;14.65;;;4.88;;
64597;SDS011;51004;54.692;9.332;2023-07-02T01:52:36;17.10;;;4.47;;
64597;SDS011;51004;54.692;9.332;2023-07-02T01:55:02;21.90;;;6.75;;
64597;SDS011;51004;54.692;9.332;2023-07-02T01:57:28;24.27;;;7.38;;
64597;SDS011;51004;54.692;9.332;2023-07-02T01:59:55;19.27;;;5.70;;
64597;SDS011;51004;54.692;9.332;2023-07-02T02:02:22;21.42;;;5.85;;
64597;SDS011;51004;54.692;9.332;2023-07-02T02:04:48;16.85;;;5.85;;
64597;SDS011;51004;54.692;9.332;2023-07-02T02:07:14;19.30;;;5.35;;
64597;SDS011;51004;54.692;9.332;2023-07-02T02:09:40;16.35;;;5.28;;
64597;SDS011;51004;54.692;9.332;2023-07-02T02:12:06;13.10;;;4.93;;
64597;SDS011;51004;54.692;9.332;2023-07-02T02:14:32;14.75;;;4.60;;
64597;SDS011;51004;54.692;9.332;2023-07-02T02:16:58;20.20;;;5.50;;
64597;SDS011;51004;54.692;9.332;2023-07-02T02:19:24;21.33;;;6.38;;
64597;SDS011;51004;54.692;9.332;2023-07-02T02:21:50;18.88;;;5.60;;
64597;SDS011;51004;54.692;9.332;2023-07-02T02:24:16;19.17;;;4.85;;
64597;SDS011;51004;54.692;9.332;2023-07-02T02:26:42;28.70;;;6.88;;
64597;SDS011;51004;54.692;9.332;2023-07-02T02:29:08;15.63;;;5.68;;
64597;SDS011;51004;54.692;9.332;2023-07-02T02:31:34;21.15;;;5.63;;
64597;SDS011;51004;54.692;9.332;2023-07-02T02:34:00;15.95;;;5.65;;
64597;SDS011;51004;54.692;9.332;2023-07-02T02:36:26;17.63;;;4.97;;
64597;SDS011;51004;54.692;9.332;2023-07-02T02:38:52;18.90;;;5.97;;
64597;SDS011;51004;54.692;9.332;2023-07-02T02:41:18;17.65;;;4.63;;
64597;SDS011;51004;54.692;9.332;2023-07-02T02:43:44;15.45;;;5.45;;
64597;SDS011;51004;54.692;9.332;2023-07-02T02:46:10;14.77;;;4.72;;
64597;SDS011;51004;54.692;9.332;2023-07-02T02:48:36;19.10;;;5.93;;
64597;SDS011;51004;54.692;9.332;2023-07-02T02:51:02;15.27;;;5.25;;
64597;SDS011;51004;54.692;9.332;2023-07-02T02:53:28;11.32;;;5.00;;
64597;SDS011;51004;54.692;9.332;2023-07-02T02:55:54;16.67;;;4.97;;
64597;SDS011;51004;54.692;9.332;2023-07-02T02:58:20;17.70;;;5.80;;
64597;SDS011;51004;54.692;9.332;2023-07-02T03:00:48;13.02;;;4.97;;
64597;SDS011;51004;54.692;9.332;2023-07-02T03:03:14;13.88;;;4.78;;
64597;SDS011;51004;54.692;9.332;2023-07-02T03:05:41;17.38;;;4.68;;
64597;SDS011;51004;54.692;9.332;2023-07-02T03:08:09;13.13;;;4.63;;
64597;SDS011;51004;54.692;9.332;2023-07-02T03:10:35;18.75;;;5.55;;
64597;SDS011;51004;54.692;9.332;2023-07-02T03:13:01;14.95;;;5.43;;
64597;SDS011;51004;54.692;9.332;2023-07-02T03:15:27;16.75;;;5.00;;
64597;SDS011;51004;54.692;9.332;2023-07-02T03:17:53;15.85;;;4.88;;
64597;SDS011;51004;54.692;9.332;2023-07-02T03:20:19;14.23;;;5.57;;
64597;SDS011;51004;54.692;9.332;2023-07-02T03:22:45;14.43;;;4.55;;
64597;SDS011;51004;54.692;9.332;2023-07-02T03:25:11;14.85;;;5.45;;
64597;SDS011;51004;54.692;9.332;2023-07-02T03:27:37;14.57;;;4.82;;
64597;SDS011;51004;54.692;9.332;2023-07-02T03:30:03;15.13;;;5.65;;
64597;SDS011;51004;54.692;9.332;2023-07-02T03:32:29;17.38;;;5.93;;
64597;SDS011;51004;54.692;9.332;2023-07-02T03:34:56;14.35;;;4.88;;
64597;SDS011;51004;54.692;9.332;2023-07-02T03:37:21;13.85;;;5.93;;
64597;SDS011;51004;54.692;9.332;2023-07-02T03:39:49;16.00;;;5.22;;
64597;SDS011;51004;54.692;9.332;2023-07-02T03:42:16;13.68;;;5.03;;
64597;SDS011;51004;54.692;9.332;2023-07-02T03:44:45;11.82;;;5.10;;
64597;SDS011;51004;54.692;9.332;2023-07-02T03:47:11;11.10;;;4.78;;
64597;SDS011;51004;54.692;9.332;2023-07-02T03:49:40;14.73;;;5.57;;
64597;SDS011;51004;54.692;9.332;2023-07-02T03:52:06;16.35;;;6.20;;
64597;SDS011;51004;54.692;9.332;2023-07-02T03:54:32;13.23;;;5.82;;
64597;SDS011;51004;54.692;9.332;2023-07-02T03:56:58;9.77;;;4.80;;
64597;SDS011;51004;54.692;9.332;2023-07-02T03:59:24;13.07;;;4.97;;
64597;SDS011;51004;54.692;9.332;2023-07-02T04:01:50;16.08;;;5.50;;
64597;SDS011;51004;54.692;9.332;2023-07-02T04:04:16;11.63;;;4.80;;
64597;SDS011;51004;54.692;9.332;2023-07-02T04:06:42;11.20;;;5.45;;
64597;SDS011;51004;54.692;9.332;2023-07-02T04:09:08;14.15;;;5.65;;
64597;SDS011;51004;54.692;9.332;2023-07-02T04:11:33;11.95;;;4.75;;
64597;SDS011;51004;54.692;9.332;2023-07-02T04:13:59;14.50;;;6.00;;
64597;SDS011;51004;54.692;9.332;2023-07-02T04:16:25;13.02;;;4.97;;
64597;SDS011;51004;54.692;9.332;2023-07-02T04:18:51;14.23;;;5.43;;
64597;SDS011;51004;54.692;9.332;2023-07-02T04:21:17;17.48;;;5.32;;
64597;SDS011;51004;54.692;9.332;2023-07-02T04:23:43;13.25;;;5.63;;
64597;SDS011;51004;54.692;9.332;2023-07-02T04:26:09;15.60;;;6.25;;
64597;SDS011;51004;54.692;9.332;2023-07-02T04:28:35;14.20;;;5.25;;
64597;SDS011;51004;54.692;9.332;2023-07-02T04:31:01;13.48;;;6.20;;
64597;SDS011;51004;54.692;9.332;2023-07-02T04:33:27;18.10;;;5.68;;
64597;SDS011;51004;54.692;9.332;2023-07-02T04:36:00;14.32;;;5.45;;
64597;SDS011;51004;54.692;9.332;2023-07-02T04:38:26;13.60;;;5.55;;
64597;SDS011;51004;54.692;9.332;2023-07-02T04:40:53;18.65;;;6.20;;
64597;SDS011;51004;54.692;9.332;2023-07-02T04:43:19;17.23;;;5.95;;
64597;SDS011;51004;54.692;9.332;2023-07-02T04:45:46;15.93;;;6.38;;
64597;SDS011;51004;54.692;9.332;2023-07-02T04:48:13;18.77;;;6.30;;
64597;SDS011;51004;54.692;9.332;2023-07-02T04:50:39;15.10;;;6.72;;
64597;SDS011;51004;54.692;9.332;2023-07-02T04:53:05;17.73;;;6.32;;
64597;SDS011;51004;54.692;9.332;2023-07-02T04:55:31;17.98;;;6.38;;
64597;SDS011;51004;54.692;9.332;2023-07-02T04:57:56;21.77;;;7.35;;
64597;SDS011;51004;54.692;9.332;2023-07-02T05:00:22;24.90;;;7.60;;
64597;SDS011;51004;54.692;9.332;2023-07-02T05:02:49;18.00;;;7.03;;
64597;SDS011;51004;54.692;9.332;2023-07-02T05:05:15;15.48;;;6.13;;
64597;SDS011;51004;54.692;9.332;2023-07-02T05:07:41;16.15;;;5.63;;
64597;SDS011;51004;54.692;9.332;2023-07-02T05:10:07;19.08;;;6.82;;
64597;SDS011;51004;54.692;9.332;2023-07-02T05:12:33;15.70;;;7.18;;
64597;SDS011;51004;54.692;9.332;2023-07-02T05:14:59;15.00;;;6.63;;
64597;SDS011;51004;54.692;9.332;2023-07-02T05:17:26;14.65;;;6.32;;
64597;SDS011;51004;54.692;9.332;2023-07-02T05:19:52;16.92;;;7.05;;
64597;SDS011;51004;54.692;9.332;2023-07-02T05:22:18;16.42;;;6.25;;
64597;SDS011;51004;54.692;9.332;2023-07-02T05:24:44;15.88;;;7.10;;
64597;SDS011;51004;54.692;9.332;2023-07-02T05:27:11;14.65;;;6.25;;
64597;SDS011;51004;54.692;9.332;2023-07-02T05:29:38;14.10;;;6.20;;
64597;SDS011;51004;54.692;9.332;2023-07-02T05:32:04;16.75;;;6.93;;
64597;SDS011;51004;54.692;9.332;2023-07-02T05:34:29;14.45;;;5.78;;
64597;SDS011;51004;54.692;9.332;2023-07-02T05:36:55;16.83;;;6.70;;
64597;SDS011;51004;54.692;9.332;2023-07-02T05:39:21;15.52;;;6.07;;
64597;SDS011;51004;54.692;9.332;2023-07-02T05:41:47;20.05;;;7.10;;
64597;SDS011;51004;54.692;9.332;2023-07-02T05:44:13;12.63;;;5.82;;
64597;SDS011;51004;54.692;9.332;2023-07-02T05:46:39;17.05;;;6.15;;
64597;SDS011;51004;54.692;9.332;2023-07-02T05:49:05;15.05;;;6.03;;
64597;SDS011;51004;54.692;9.332;2023-07-02T05:51:31;20.65;;;7.32;;
64597;SDS011;51004;54.692;9.332;2023-07-02T05:53:57;15.40;;;5.43;;
64597;SDS011;51004;54.692;9.332;2023-07-02T05:56:23;16.42;;;6.53;;
64597;SDS011;51004;54.692;9.332;2023-07-02T05:58:49;15.90;;;6.60;;
64597;SDS011;51004;54.692;9.332;2023-07-02T06:01:16;17.38;;;6.85;;
64597;SDS011;51004;54.692;9.332;2023-07-02T06:03:42;14.32;;;5.35;;
64597;SDS011;51004;54.692;9.332;2023-07-02T06:06:10;12.13;;;4.45;;
64597;SDS011;51004;54.692;9.332;2023-07-02T06:08:36;7.00;;;4.18;;
64597;SDS011;51004;54.692;9.332;2023-07-02T06:11:02;11.05;;;4.25;;
64597;SDS011;51004;54.692;9.332;2023-07-02T06:13:28;7.90;;;4.40;;
64597;SDS011;51004;54.692;9.332;2023-07-02T06:15:54;12.98;;;4.80;;
64597;SDS011;51004;54.692;9.332;2023-07-02T06:18:20;11.43;;;5.45;;
64597;SDS011;51004;54.692;9.332;2023-07-02T06:20:46;17.73;;;5.70;;
64597;SDS011;51004;54.692;9.332;2023-07-02T06:23:12;12.05;;;4.57;;
64597;SDS011;51004;54.692;9.332;2023-07-02T06:25:38;15.57;;;5.30;;
64597;SDS011;51004;54.692;9.332;2023-07-02T06:28:04;13.25;;;4.85;;
64597;SDS011;51004;54.692;9.332;2023-07-02T06:30:30;12.98;;;5.72;;
64597;SDS011;51004;54.692;9.332;2023-07-02T06:32:55;21.45;;;6.25;;
64597;SDS011;51004;54.692;9.332;2023-07-02T06:35:22;15.85;;;5.45;;
64597;SDS011;51004;54.692;9.332;2023-07-02T06:37:48;13.50;;;4.88;;
64597;SDS011;51004;54.692;9.332;2023-07-02T06:40:14;18.17;;;5.05;;
64597;SDS011;51004;54.692;9.332;2023-07-02T06:42:40;17.48;;;5.10;;
64597;SDS011;51004;54.692;9.332;2023-07-02T06:45:06;13.45;;;4.85;;
64597;SDS011;51004;54.692;9.332;2023-07-02T06:47:32;15.13;;;5.13;;
64597;SDS011;51004;54.692;9.332;2023-07-02T06:49:58;15.50;;;4.35;;
64597;SDS011;51004;54.692;9.332;2023-07-02T06:52:24;16.02;;;6.07;;
64597;SDS011;51004;54.692;9.332;2023-07-02T06:54:50;13.98;;;5.18;;
64597;SDS011;51004;54.692;9.332;2023-07-02T06:57:16;17.38;;;5.68;;
64597;SDS011;51004;54.692;9.332;2023-07-02T06:59:42;17.83;;;5.40;;
64597;SDS011;51004;54.692;9.332;2023-07-02T07:02:08;19.63;;;5.43;;
64597;SDS011;51004;54.692;9.332;2023-07-02T07:04:34;16.42;;;4.82;;
64597;SDS011;51004;54.692;9.332;2023-07-02T07:07:00;13.90;;;4.93;;
64597;SDS011;51004;54.692;9.332;2023-07-02T07:09:27;16.30;;;4.75;;
64597;SDS011;51004;54.692;9.332;2023-07-02T07:11:53;15.25;;;4.28;;
64597;SDS011;51004;54.692;9.332;2023-07-02T07:14:19;15.25;;;4.72;;
64597;SDS011;51004;54.692;9.332;2023-07-02T07:16:45;19.75;;;5.55;;
64597;SDS011;51004;54.692;9.332;2023-07-02T07:19:11;11.20;;;4.35;;
64597;SDS011;51004;54.692;9.332;2023-07-02T07:21:37;12.27;;;4.20;;
64597;SDS011;51004;54.692;9.332;2023-07-02T07:24:05;13.30;;;4.10;;
64597;SDS011;51004;54.692;9.332;2023-07-02T07:26:31;16.48;;;4.72;;
64597;SDS011;51004;54.692;9.332;2023-07-02T07:28:56;18.58;;;4.28;;
64597;SDS011;51004;54.692;9.332;2023-07-02T07:31:23;17.25;;;4.55;;
64597;SDS011;51004;54.692;9.332;2023-07-02T07:33:49;13.95;;;3.58;;
64597;SDS011;51004;54.692;9.332;2023-07-02T07:36:14;15.45;;;3.92;;
64597;SDS011;51004;54.692;9.332;2023-07-02T07:38:42;14.60;;;3.22;;
64597;SDS011;51004;54.692;9.332;2023-07-02T07:41:08;12.55;;;4.25;;
64597;SDS011;51004;54.692;9.332;2023-07-02T07:43:34;9.13;;;3.30;;
64597;SDS011;51004;54.692;9.332;2023-07-02T07:46:00;13.43;;;3.88;;
64597;SDS011;51004;54.692;9.332;2023-07-02T07:48:26;10.65;;;3.17;;
64597;SDS011;51004;54.692;9.332;2023-07-02T07:50:52;13.88;;;2.95;;
64597;SDS011;51004;54.692;9.332;2023-07-02T07:53:18;12.98;;;4.15;;
64597;SDS011;51004;54.692;9.332;2023-07-02T07:55:44;10.75;;;3.60;;
64597;SDS011;51004;54.692;9.332;2023-07-02T07:58:10;14.27;;;3.65;;
64597;SDS011;51004;54.692;9.332;2023-07-02T08:00:36;10.77;;;3.47;;
64597;SDS011;51004;54.692;9.332;2023-07-02T08:03:02;12.32;;;4.47;;
64597;SDS011;51004;54.692;9.332;2023-07-02T08:05:29;12.60;;;3.45;;
64597;SDS011;51004;54.692;9.332;2023-07-02T08:07:55;16.33;;;3.63;;
64597;SDS011;51004;54.692;9.332;2023-07-02T08:10:22;15.60;;;3.95;;
64597;SDS011;51004;54.692;9.332;2023-07-02T08:12:48;16.83;;;4.28;;
64597;SDS011;51004;54.692;9.332;2023-07-02T08:15:17;17.98;;;5.05;;
64597;SDS011;51004;54.692;9.332;2023-07-02T08:17:43;12.95;;;4.07;;
64597;SDS011;51004;54.692;9.332;2023-07-02T08:20:09;14.57;;;4.05;;
64597;SDS011;51004;54.692;9.332;2023-07-02T08:22:38;19.27;;;4.25;;
64597;SDS011;51004;54.692;9.332;2023-07-02T08:25:05;18.45;;;4.05;;
64597;SDS011;51004;54.692;9.332;2023-07-02T08:27:31;15.68;;;3.85;;
64597;SDS011;51004;54.692;9.332;2023-07-02T08:29:58;18.15;;;4.00;;
64597;SDS011;51004;54.692;9.332;2023-07-02T08:32:24;15.68;;;4.03;;
64597;SDS011;51004;54.692;9.332;2023-07-02T08:34:50;13.40;;;3.33;;
64597;SDS011;51004;54.692;9.332;2023-07-02T08:37:17;12.35;;;2.97;;
64597;SDS011;51004;54.692;9.332;2023-07-02T08:39:43;17.70;;;3.22;;
64597;SDS011;51004;54.692;9.332;2023-07-02T08:42:09;12.55;;;2.88;;
64597;SDS011;51004;54.692;9.332;2023-07-02T08:44:34;11.82;;;2.85;;
64597;SDS011;51004;54.692;9.332;2023-07-02T08:47:01;12.45;;;3.25;;
64597;SDS011;51004;54.692;9.332;2023-07-02T08:49:27;12.80;;;2.70;;
64597;SDS011;51004;54.692;9.332;2023-07-02T08:51:53;9.95;;;2.88;;
64597;SDS011;51004;54.692;9.332;2023-07-02T08:54:19;9.05;;;3.00;;
64597;SDS011;51004;54.692;9.332;2023-07-02T08:56:45;11.05;;;3.72;;
64597;SDS011;51004;54.692;9.332;2023-07-02T08:59:11;8.68;;;2.67;;
64597;SDS011;51004;54.692;9.332;2023-07-02T09:01:47;12.05;;;2.65;;
64597;SDS011;51004;54.692;9.332;2023-07-02T09:04:23;10.90;;;2.33;;
64597;SDS011;51004;54.692;9.332;2023-07-02T09:06:50;8.65;;;2.38;;
64597;SDS011;51004;54.692;9.332;2023-07-02T09:09:16;11.70;;;2.88;;
64597;SDS011;51004;54.692;9.332;2023-07-02T09:11:46;10.80;;;2.50;;
64597;SDS011;51004;54.692;9.332;2023-07-02T09:14:23;11.52;;;3.00;;
64597;SDS011;51004;54.692;9.332;2023-07-02T09:16:49;8.80;;;2.80;;
64597;SDS011;51004;54.692;9.332;2023-07-02T09:19:14;13.88;;;2.80;;
64597;SDS011;51004;54.692;9.332;2023-07-02T09:21:46;17.08;;;3.67;;
64597;SDS011;51004;54.692;9.332;2023-07-02T09:26:45;10.13;;;2.65;;
64597;SDS011;51004;54.692;9.332;2023-07-02T09:29:12;11.63;;;3.08;;
64597;SDS011;51004;54.692;9.332;2023-07-02T09:31:47;8.82;;;2.55;;
64597;SDS011;51004;54.692;9.332;2023-07-02T09:34:13;11.18;;;2.88;;
64597;SDS011;51004;54.692;9.332;2023-07-02T09:36:40;12.15;;;2.58;;
64597;SDS011;51004;54.692;9.332;2023-07-02T09:39:07;10.82;;;2.55;;
64597;SDS011;51004;54.692;9.332;2023-07-02T09:41:33;9.77;;;2.47;;
64597;SDS011;51004;54.692;9.332;2023-07-02T09:43:59;16.20;;;2.97;;
64597;SDS011;51004;54.692;9.332;2023-07-02T09:46:26;9.43;;;2.85;;
64597;SDS011;51004;54.692;9.332;2023-07-02T09:48:52;17.90;;;4.43;;
64597;SDS011;51004;54.692;9.332;2023-07-02T09:51:18;14.35;;;3.10;;
64597;SDS011;51004;54.692;9.332;2023-07-02T09:53:44;14.88;;;2.88;;
64597;SDS011;51004;54.692;9.332;2023-07-02T09:56:11;12.00;;;2.83;;
64597;SDS011;51004;54.692;9.332;2023-07-02T09:58:37;10.63;;;2.85;;
64597;SDS011;51004;54.692;9.332;2023-07-02T10:01:03;8.82;;;2.40;;
64597;SDS011;51004;54.692;9.332;2023-07-02T10:03:30;13.63;;;3.25;;
64597;SDS011;51004;54.692;9.332;2023-07-02T10:06:05;9.25;;;2.38;;
64597;SDS011;51004;54.692;9.332;2023-07-02T10:08:31;12.52;;;3.17;;
64597;SDS011;51004;54.692;9.332;2023-07-02T10:11:10;8.60;;;2.00;;
64597;SDS011;51004;54.692;9.332;2023-07-02T10:13:37;10.05;;;2.30;;
64597;SDS011;51004;54.692;9.332;2023-07-02T10:16:04;11.63;;;2.50;;
64597;SDS011;51004;54.692;9.332;2023-07-02T10:18:32;6.80;;;2.17;;
64597;SDS011;51004;54.692;9.332;2023-07-02T10:20:59;10.65;;;2.40;;
64597;SDS011;51004;54.692;9.332;2023-07-02T10:23:35;10.38;;;2.15;;
64597;SDS011;51004;54.692;9.332;2023-07-02T10:26:13;15.30;;;2.92;;
64597;SDS011;51004;54.692;9.332;2023-07-02T10:28:39;9.23;;;2.25;;
64597;SDS011;51004;54.692;9.332;2023-07-02T10:31:16;14.05;;;3.42;;
64597;SDS011;51004;54.692;9.332;2023-07-02T10:33:47;12.00;;;2.28;;
64597;SDS011;51004;54.692;9.332;2023-07-02T10:36:46;14.52;;;3.17;;
64597;SDS011;51004;54.692;9.332;2023-07-02T10:39:05;6.47;;;2.13;;
64597;SDS011;51004;54.692;9.332;2023-07-02T10:41:31;10.85;;;2.22;;
64597;SDS011;51004;54.692;9.332;2023-07-02T10:44:05;11.85;;;2.35;;
64597;SDS011;51004;54.692;9.332;2023-07-02T10:46:31;11.32;;;2.25;;
64597;SDS011;51004;54.692;9.332;2023-07-02T10:48:57;13.60;;;2.70;;
64597;SDS011;51004;54.692;9.332;2023-07-02T10:51:23;12.48;;;2.63;;
64597;SDS011;51004;54.692;9.332;2023-07-02T10:54:01;9.32;;;2.55;;
64597;SDS011;51004;54.692;9.332;2023-07-02T10:56:29;14.27;;;2.88;;
64597;SDS011;51004;54.692;9.332;2023-07-02T10:58:55;11.73;;;2.72;;
64597;SDS011;51004;54.692;9.332;2023-07-02T11:01:25;19.75;;;3.28;;
64597;SDS011;51004;54.692;9.332;2023-07-02T11:03:55;11.55;;;2.30;;
64597;SDS011;51004;54.692;9.332;2023-07-02T11:06:22;10.10;;;2.53;;
64597;SDS011;51004;54.692;9.332;2023-07-02T11:08:48;8.35;;;2.35;;
64597;SDS011;51004;54.692;9.332;2023-07-02T11:11:13;8.93;;;2.00;;
64597;SDS011;51004;54.692;9.332;2023-07-02T11:13:44;10.95;;;2.35;;
64597;SDS011;51004;54.692;9.332;2023-07-02T11:16:21;10.13;;;2.47;;
64597;SDS011;51004;54.692;9.332;2023-07-02T11:18:49;12.20;;;2.70;;
64597;SDS011;51004;54.692;9.332;2023-07-02T11:21:15;11.30;;;2.85;;
64597;SDS011;51004;54.692;9.332;2023-07-02T11:23:41;9.57;;;2.72;;
64597;SDS011;51004;54.692;9.332;2023-07-02T11:26:07;9.45;;;3.78;;
64597;SDS011;51004;54.692;9.332;2023-07-02T11:28:33;9.52;;;2.38;;
64597;SDS011;51004;54.692;9.332;2023-07-02T11:30:59;10.80;;;2.67;;
64597;SDS011;51004;54.692;9.332;2023-07-02T11:36:02;11.60;;;2.78;;
64597;SDS011;51004;54.692;9.332;2023-07-02T11:38:28;14.48;;;3.03;;
64597;SDS011;51004;54.692;9.332;2023-07-02T11:40:54;12.98;;;2.97;;
64597;SDS011;51004;54.692;9.332;2023-07-02T11:43:20;14.07;;;2.80;;
64597;SDS011;51004;54.692;9.332;2023-07-02T11:45:46;14.68;;;2.97;;
64597;SDS011;51004;54.692;9.332;2023-07-02T11:48:12;10.90;;;2.75;;
64597;SDS011;51004;54.692;9.332;2023-07-02T11:50:38;7.60;;;2.20;;
64597;SDS011;51004;54.692;9.332;2023-07-02T11:53:04;11.98;;;2.85;;
64597;SDS011;51004;54.692;9.332;2023-07-02T11:55:30;9.68;;;1.92;;
64597;SDS011;51004;54.692;9.332;2023-07-02T11:57:56;8.13;;;2.10;;
64597;SDS011;51004;54.692;9.332;2023-07-02T12:00:22;9.70;;;2.50;;
64597;SDS011;51004;54.692;9.332;2023-07-02T12:02:48;9.38;;;2.42;;
64597;SDS011;51004;54.692;9.332;2023-07-02T12:05:15;11.55;;;3.05;;
64597;SDS011;51004;54.692;9.332;2023-07-02T12:07:41;10.52;;;2.70;;
64597;SDS011;51004;54.692;9.332;2023-07-02T12:10:07;11.57;;;2.25;;
64597;SDS011;51004;54.692;9.332;2023-07-02T12:12:34;9.00;;;2.65;;
64597;SDS011;51004;54.692;9.332;2023-07-02T12:15:00;9.23;;;2.90;;
64597;SDS011;51004;54.692;9.332;2023-07-02T12:17:26;6.95;;;1.98;;
64597;SDS011;51004;54.692;9.332;2023-07-02T12:19:52;8.30;;;2.42;;
64597;SDS011;51004;54.692;9.332;2023-07-02T12:22:17;12.02;;;2.95;;
64597;SDS011;51004;54.692;9.332;2023-07-02T12:24:46;14.07;;;3.20;;
64597;SDS011;51004;54.692;9.332;2023-07-02T12:27:14;13.80;;;2.60;;
64597;SDS011;51004;54.692;9.332;2023-07-02T12:29:40;11.18;;;2.55;;
64597;SDS011;51004;54.692;9.332;2023-07-02T12:32:06;11.48;;;2.53;;
64597;SDS011;51004;54.692;9.332;2023-07-02T12:34:32;10.10;;;2.45;;
64597;SDS011;51004;54.692;9.332;2023-07-02T12:36:58;14.98;;;3.03;;
64597;SDS011;51004;54.692;9.332;2023-07-02T12:39:24;9.73;;;2.88;;
64597;SDS011;51004;54.692;9.332;2023-07-02T12:41:51;11.70;;;2.80;;
64597;SDS011;51004;54.692;9.332;2023-07-02T12:44:17;13.93;;;2.63;;
64597;SDS011;51004;54.692;9.332;2023-07-02T12:46:43;8.00;;;2.65;;
64597;SDS011;51004;54.692;9.332;2023-07-02T12:49:09;10.20;;;1.80;;
64597;SDS011;51004;54.692;9.332;2023-07-02T12:51:35;8.88;;;2.38;;
64597;SDS011;51004;54.692;9.332;2023-07-02T12:54:01;12.27;;;2.38;;
64597;SDS011;51004;54.692;9.332;2023-07-02T12:56:31;9.23;;;2.53;;
64597;SDS011;51004;54.692;9.332;2023-07-02T12:58:57;9.90;;;1.92;;
64597;SDS011;51004;54.692;9.332;2023-07-02T13:01:23;10.05;;;2.60;;
64597;SDS011;51004;54.692;9.332;2023-07-02T13:03:49;13.32;;;2.47;;
64597;SDS011;51004;54.692;9.332;2023-07-02T13:06:16;8.75;;;2.20;;
64597;SDS011;51004;54.692;9.332;2023-07-02T13:08:42;8.55;;;2.33;;
64597;SDS011;51004;54.692;9.332;2023-07-02T13:11:08;8.75;;;2.42;;
64597;SDS011;51004;54.692;9.332;2023-07-02T13:13:34;9.00;;;1.90;;
64597;SDS011;51004;54.692;9.332;2023-07-02T13:16:03;12.65;;;2.72;;
64597;SDS011;51004;54.692;9.332;2023-07-02T13:18:29;15.50;;;2.58;;
64597;SDS011;51004;54.692;9.332;2023-07-02T13:20:55;10.55;;;2.88;;
64597;SDS011;51004;54.692;9.332;2023-07-02T13:23:21;11.13;;;2.70;;
64597;SDS011;51004;54.692;9.332;2023-07-02T13:25:47;14.57;;;2.85;;
64597;SDS011;51004;54.692;9.332;2023-07-02T13:28:13;9.65;;;2.30;;
64597;SDS011;51004;54.692;9.332;2023-07-02T13:30:39;7.47;;;1.83;;
64597;SDS011;51004;54.692;9.332;2023-07-02T13:33:04;11.65;;;2.55;;
64597;SDS011;51004;54.692;9.332;2023-07-02T13:35:30;8.95;;;1.92;;
64597;SDS011;51004;54.692;9.332;2023-07-02T13:37:56;11.88;;;2.30;;
64597;SDS011;51004;54.692;9.332;2023-07-02T13:40:24;11.52;;;2.25;;
64597;SDS011;51004;54.692;9.332;2023-07-02T13:42:50;12.68;;;2.95;;
64597;SDS011;51004;54.692;9.332;2023-07-02T13:45:16;14.13;;;2.75;;
64597;SDS011;51004;54.692;9.332;2023-07-02T13:47:42;11.43;;;2.70;;
64597;SDS011;51004;54.692;9.332;2023-07-02T13:50:13;16.13;;;2.78;;
64597;SDS011;51004;54.692;9.332;2023-07-02T13:52:42;14.90;;;2.58;;
64597;SDS011;51004;54.692;9.332;2023-07-02T13:55:08;12.82;;;2.80;;
64597;SDS011;51004;54.692;9.332;2023-07-02T13:57:34;14.40;;;2.78;;
64597;SDS011;51004;54.692;9.332;2023-07-02T14:00:00;12.95;;;3.25;;
64597;SDS011;51004;54.692;9.332;2023-07-02T14:02:26;12.88;;;3.20;;
64597;SDS011;51004;54.692;9.332;2023-07-02T14:04:52;12.15;;;2.47;;
64597;SDS011;51004;54.692;9.332;2023-07-02T14:07:18;13.15;;;3.60;;
64597;SDS011;51004;54.692;9.332;2023-07-02T14:09:44;16.98;;;3.25;;
64597;SDS011;51004;54.692;9.332;2023-07-02T14:12:10;17.08;;;3.47;;
64597;SDS011;51004;54.692;9.332;2023-07-02T14:14:37;11.38;;;3.00;;
64597;SDS011;51004;54.692;9.332;2023-07-02T14:17:03;13.23;;;3.63;;
64597;SDS011;51004;54.692;9.332;2023-07-02T14:19:30;11.10;;;3.03;;
64597;SDS011;51004;54.692;9.332;2023-07-02T14:21:56;10.15;;;2.88;;
64597;SDS011;51004;54.692;9.332;2023-07-02T14:24:22;10.80;;;2.97;;
64597;SDS011;51004;54.692;9.332;2023-07-02T14:26:48;11.43;;;3.70;;
64597;SDS011;51004;54.692;9.332;2023-07-02T14:29:14;10.10;;;3.20;;
64597;SDS011;51004;54.692;9.332;2023-07-02T14:31:40;11.27;;;3.17;;
64597;SDS011;51004;54.692;9.332;2023-07-02T14:34:06;12.55;;;3.22;;
64597;SDS011;51004;54.692;9.332;2023-07-02T14:36:31;13.77;;;3.78;;
64597;SDS011;51004;54.692;9.332;2023-07-02T14:38:57;14.50;;;4.05;;